Time;durP1;ratioP1;P1;durP2;ratioP2;P2;SDS_P1;SDS_P2;PMS_P1;PMS_P2;Temp;Humidity;BMP_temperature;BMP_pressure;BME280_temperature;BME280_humidity;BME280_pressure;Samples;Min_cycle;Max_cycle;Signal;HPM_P1;HPM_P2
2023/01/23 00:00:11;;;;;;;;;26.00;20.00;;;;;6.64;60.15;8659.75;5034752;28;45463;-84
2023/01/23 00:02:37;;;;;;;;;29.25;26.50;;;;;6.89;59.99;8333.25;5036137;28;45512;-87
2023/01/23 00:05:02;;;;;;;;;38.00;31.25;;;;;6.90;59.88;8333.44;5033621;28;46008;-87
2023/01/23 00:07:28;;;;;;;;;32.50;25.25;;;;;6.25;59.76;8321.47;5034642;28;45558;-86
2023/01/23 00:09:53;;;;;;;;;31.50;25.50;;;;;6.90;60.24;8002.13;5035561;28;45854;-86
2023/01/23 00:12:18;;;;;;;;;38.00;29.75;;;;;6.84;59.85;8332.22;5035803;28;45765;-87
2023/01/23 00:14:44;;;;;;;;;38.00;29.25;;;;;6.90;60.24;8002.13;5041293;28;48312;-85
2023/01/23 00:17:09;;;;;;;;;28.50;27.00;;;;;6.91;60.34;8002.22;5041032;28;45417;-85
2023/01/23 00:19:34;;;;;;;;;37.25;29.75;;;;;6.89;60.08;8001.97;5034406;28;45377;-87
2023/01/23 00:22:00;;;;;;;;;37.00;30.25;;;;;6.78;60.41;7999.97;5030290;28;45513;-87
2023/01/23 00:24:25;;;;;;;;;30.00;27.75;;;;;6.79;60.56;8000.16;5024453;28;46214;-87
2023/01/23 00:26:51;;;;;;;;;36.25;31.25;;;;;6.44;60.50;7662.88;5039143;28;45487;-88
2023/01/23 00:29:16;;;;;;;;;31.25;25.25;;;;;6.38;60.47;7661.91;5035495;28;45427;-88
2023/01/23 00:31:42;;;;;;;;;34.33;28.67;;;;;6.80;60.17;8000.22;5034353;28;45706;-88
2023/01/23 00:34:11;;;;;;;;;35.25;32.50;;;;;6.30;60.10;7991.53;5034862;28;46901;-88
2023/01/23 00:36:39;;;;;;;;;37.00;33.50;;;;;6.80;60.33;8000.22;5033623;28;45446;-88
2023/01/23 00:39:07;;;;;;;;;35.25;28.50;;;;;6.88;60.48;7670.44;5033053;28;45538;-87
2023/01/23 00:41:33;;;;;;;;;40.25;33.00;;;;;6.88;60.49;7670.53;5033734;28;45465;-87
2023/01/23 00:43:59;;;;;;;;;35.25;33.25;;;;;6.27;60.23;7659.97;5033782;28;46816;-87
2023/01/23 00:46:24;;;;;;;;;39.00;32.00;;;;;6.78;60.45;7668.75;5031873;28;46936;-89
2023/01/23 00:48:50;;;;;;;;;38.00;30.25;;;;;6.78;60.20;7668.75;5035375;28;45741;-88
2023/01/23 00:51:16;;;;;;;;;37.00;33.50;;;;;6.48;60.23;7663.56;5034539;28;45539;-88
2023/01/23 00:53:41;;;;;;;;;32.00;28.50;;;;;6.56;60.53;7664.97;5033307;28;46258;-88
2023/01/23 00:56:07;;;;;;;;;34.00;29.00;;;;;6.85;60.21;7669.91;5033976;28;45448;-88
2023/01/23 00:58:32;;;;;;;;;33.25;27.25;;;;;6.60;60.36;7334.59;5027466;28;45433;-88
2023/01/23 01:00:57;;;;;;;;;37.00;35.00;;;;;6.79;60.72;7337.78;5031825;28;45513;-88
2023/01/23 01:03:24;;;;;;;;;36.00;28.75;;;;;6.56;60.61;7333.94;5031639;28;47334;-88
2023/01/23 01:05:49;;;;;;;;;30.00;29.50;;;;;6.73;60.53;7336.75;5041467;28;45430;-86
2023/01/23 01:08:15;;;;;;;;;35.50;31.25;;;;;6.85;60.23;7338.78;5032681;28;45820;-86
2023/01/23 01:10:40;;;;;;;;;32.00;28.75;;;;;6.88;60.71;7008.03;5034349;28;45394;-86
2023/01/23 01:13:07;;;;;;;;;33.50;30.00;;;;;6.89;60.63;7008.28;5034538;28;46150;-86
2023/01/23 01:15:32;;;;;;;;;36.75;29.25;;;;;6.90;60.75;7008.34;5032486;28;45480;-86
2023/01/23 01:17:58;;;;;;;;;39.25;30.50;;;;;6.90;60.47;7008.34;5032078;28;45489;-85
2023/01/23 01:20:25;;;;;;;;;38.00;31.33;;;;;6.90;60.56;7008.34;5030778;28;45893;-86
2023/01/23 01:22:52;;;;;;;;;39.50;34.25;;;;;6.42;60.38;7000.59;5032303;28;45531;-86
2023/01/23 01:25:18;;;;;;;;;34.75;28.75;;;;;6.90;60.67;6677.19;5031733;28;45654;-85
2023/01/23 01:27:44;;;;;;;;;37.75;29.50;;;;;6.89;60.29;7008.19;5033918;28;45523;-86
2023/01/23 01:30:10;;;;;;;;;38.75;30.00;;;;;6.82;60.57;6675.91;5032065;28;45589;-86
2023/01/23 01:32:37;;;;;;;;;33.75;25.25;;;;;6.91;60.93;6677.34;5028074;28;46789;-87
2023/01/23 01:35:05;;;;;;;;;33.75;29.25;;;;;6.82;60.38;6675.91;5028628;28;45497;-87
2023/01/23 01:37:35;;;;;;;;;37.00;30.00;;;;;6.90;60.64;6677.25;5031378;28;45597;-87
2023/01/23 01:40:02;;;;;;;;;38.25;31.75;;;;;6.90;60.62;6677.25;5034354;28;45367;-85
2023/01/23 01:42:27;;;;;;;;;37.00;31.50;;;;;6.91;60.94;6677.34;5027854;28;46352;-86
2023/01/23 01:44:58;;;;;;;;;35.50;30.75;;;;;6.79;60.48;6675.44;5033252;28;45459;-86
2023/01/23 01:47:24;;;;;;;;;31.75;26.25;;;;;6.91;60.45;6346.28;5034006;28;45453;-86
2023/01/23 01:49:54;;;;;;;;;35.75;33.25;;;;;6.86;60.74;6345.41;5032933;28;45532;-85
2023/01/23 01:52:22;;;;;;;;;38.00;32.00;;;;;6.90;60.96;6346.13;5034030;28;45788;-85
2023/01/23 01:55:01;;;;;;;;;29.50;27.75;;;;;6.83;60.80;6344.97;5032772;28;45523;-85
2023/01/23 01:57:42;;;;;;;;;31.50;27.00;;;;;6.91;60.34;6346.19;5033797;28;45483;-85
2023/01/23 02:00:11;;;;;;;;;32.00;28.75;;;;;6.91;60.91;6346.19;5033994;28;45576;-85
2023/01/23 02:02:45;;;;;;;;;37.50;28.00;;;;;6.91;60.68;6346.28;5034213;28;47343;-87
2023/01/23 02:05:35;;;;;;;;;39.25;31.50;;;;;6.82;60.79;6344.88;5032386;28;45365;-85
2023/01/23 02:08:13;;;;;;;;;34.50;32.25;;;;;6.89;61.01;6345.88;5030172;28;45507;-86
2023/01/23 02:10:40;;;;;;;;;42.50;34.50;;;;;6.69;60.98;6342.88;5022916;28;45474;-86
2023/01/23 02:13:34;;;;;;;;;45.50;33.50;;;;;6.85;60.71;6345.34;5034255;28;47128;-86
2023/01/23 02:16:09;;;;;;;;;29.75;28.25;;;;;6.66;61.17;6342.50;5036618;28;45719;-87
2023/01/23 02:18:41;;;;;;;;;28.25;27.75;;;;;6.85;60.80;6345.28;5036041;28;45896;-87
2023/01/23 02:21:07;;;;;;;;;36.00;30.00;;;;;6.85;60.91;6345.34;5035211;28;45660;-87
2023/01/23 02:23:32;;;;;;;;;40.75;29.75;;;;;6.84;60.81;6345.19;5033201;28;46575;-85
2023/01/23 02:26:02;;;;;;;;;36.00;32.25;;;;;6.84;61.17;6014.09;5034521;28;45614;-87
2023/01/23 02:28:39;;;;;;;;;33.50;29.75;;;;;6.83;61.19;6013.97;5036481;28;45767;-87
2023/01/23 02:31:05;;;;;;;;;29.75;28.50;;;;;6.85;60.65;6014.25;5032056;28;45601;-87
2023/01/23 02:33:30;;;;;;;;;31.00;21.25;;;;;6.82;60.92;6013.72;5035904;28;45812;-87
2023/01/23 02:35:57;;;;;;;;;45.50;34.75;;;;;6.41;61.18;6007.84;5035858;28;45856;-86
2023/01/23 02:38:28;;;;;;;;;45.50;35.25;;;;;6.82;61.41;6013.81;5036779;28;45723;-86
2023/01/23 02:40:56;;;;;;;;;35.75;30.00;;;;;6.69;60.73;6011.88;5037115;28;45351;-84
2023/01/23 02:43:27;;;;;;;;;40.75;31.50;;;;;6.80;60.93;6013.44;5036441;28;45512;-84
2023/01/23 02:45:53;;;;;;;;;31.67;29.00;;;;;6.78;61.41;6013.13;5035539;28;45791;-83
2023/01/23 02:48:19;;;;;;;;;38.00;32.75;;;;;6.78;60.92;6013.22;5035036;28;45600;-84
2023/01/23 02:50:45;;;;;;;;;38.25;32.75;;;;;6.57;61.07;5679.25;5035802;28;45476;-85
2023/01/23 02:53:11;;;;;;;;;32.75;28.75;;;;;6.81;61.48;5682.63;5031462;28;48082;-84
2023/01/23 02:55:38;;;;;;;;;29.75;27.50;;;;;6.75;61.24;5681.81;5035724;28;45570;-84
2023/01/23 03:00:47;;;;;;;;;36.00;31.50;;;;;6.79;61.20;5682.34;5036050;28;45476;-84
2023/01/23 03:03:14;;;;;;;;;39.50;33.00;;;;;6.80;61.19;5682.47;5036360;28;46509;-84
2023/01/23 03:05:40;;;;;;;;;35.25;31.00;;;;;6.80;61.12;5351.47;5029779;28;45485;-84
2023/01/23 03:08:06;;;;;;;;;41.00;31.75;;;;;6.73;61.14;5350.50;5036306;28;45564;-85
2023/01/23 03:10:31;;;;;;;;;34.75;32.75;;;;;6.69;61.68;5350.03;5036138;28;45441;-83
2023/01/23 03:13:06;;;;;;;;;40.25;35.25;;;;;6.23;61.19;5013.09;5034287;28;45716;-84
2023/01/23 03:15:32;;;;;;;;;47.00;33.75;;;;;6.82;61.57;5020.69;5032417;28;45503;-85
2023/01/23 03:17:58;;;;;;;;;37.50;31.75;;;;;6.82;61.48;5020.69;5032091;28;45681;-85
2023/01/23 03:20:23;;;;;;;;;36.50;31.75;;;;;6.84;61.59;5020.94;5034612;28;45835;-86
2023/01/23 03:22:49;;;;;;;;;37.00;32.00;;;;;6.86;61.68;5021.28;5035576;28;45958;-84
2023/01/23 03:25:15;;;;;;;;;38.75;31.50;;;;;6.85;61.69;4690.09;5038061;28;45461;-85
2023/01/23 03:27:40;;;;;;;;;40.50;34.75;;;;;6.71;61.64;5019.38;5035252;28;45607;-86
2023/01/23 03:30:14;;;;;;;;;35.00;27.00;;;;;6.44;61.59;4685.09;5032462;28;45433;-85
2023/01/23 03:32:40;;;;;;;;;36.75;30.00;;;;;6.73;61.37;4688.72;5035080;28;46067;-87
2023/01/23 03:35:15;;;;;;;;;41.00;36.25;;;;;6.86;61.63;4690.22;5034769;28;45563;-87
2023/01/23 03:37:41;;;;;;;;;41.00;34.25;;;;;6.83;61.52;4689.91;5033899;28;45515;-86
2023/01/23 03:42:59;;;;;;;;;43.50;35.00;;;;;6.86;61.91;4690.22;5038678;28;45787;-87
2023/01/23 03:45:25;;;;;;;;;39.25;34.00;;;;;6.49;61.59;4354.91;5034271;28;45379;-86
2023/01/23 03:47:50;;;;;;;;;38.25;34.25;;;;;6.85;61.29;4359.22;5032752;28;45533;-86
2023/01/23 03:50:15;;;;;;;;;36.50;31.50;;;;;6.20;61.31;4351.47;5032624;28;45466;-87
2023/01/23 03:52:41;;;;;;;;;32.00;29.50;;;;;6.59;61.34;4356.06;5033292;28;45477;-86
2023/01/23 03:55:07;;;;;;;;;37.25;32.75;;;;;6.32;61.45;4352.97;5032190;28;45556;-85
2023/01/23 03:57:32;;;;;;;;;36.50;33.25;;;;;6.86;61.73;4359.34;5032743;28;45523;-85
2023/01/23 03:59:57;;;;;;;;;42.00;31.75;;;;;6.00;61.65;4349.16;5033470;28;45512;-87
2023/01/23 04:02:23;;;;;;;;;40.75;35.00;;;;;6.29;61.60;4352.63;5030184;28;46006;-86
2023/01/23 04:04:48;;;;;;;;;36.50;32.00;;;;;6.41;61.99;4023.25;5042948;28;45671;-87
2023/01/23 04:07:14;;;;;;;;;39.50;34.00;;;;;6.31;61.72;4022.16;5031732;28;45433;-87
2023/01/23 04:09:39;;;;;;;;;44.75;34.00;;;;;6.41;62.17;4023.31;5036111;28;46054;-88
2023/01/23 04:12:04;;;;;;;;;37.75;34.75;;;;;6.32;61.70;4022.34;5035273;28;46094;-87
2023/01/23 04:14:34;;;;;;;;;46.25;34.00;;;;;6.80;62.05;4027.66;5035740;28;45677;-87
2023/01/23 04:16:59;;;;;;;;;39.00;34.00;;;;;6.72;61.92;4026.78;5034191;28;45449;-86
2023/01/23 04:19:24;;;;;;;;;45.00;36.25;;;;;6.83;62.08;4028.00;5036016;28;45456;-86
2023/01/23 04:21:50;;;;;;;;;40.50;31.50;;;;;6.31;61.96;4022.22;5033625;28;47269;-87
2023/01/23 04:24:16;;;;;;;;;39.25;31.50;;;;;6.84;62.08;3697.28;5035486;28;45843;-86
2023/01/23 04:26:41;;;;;;;;;37.25;31.00;;;;;6.85;61.63;4028.25;5035673;28;45522;-86
2023/01/23 04:29:06;;;;;;;;;39.00;33.50;;;;;6.84;61.66;3697.28;5035489;28;45502;-86
2023/01/23 04:31:32;;;;;;;;;39.50;35.25;;;;;6.30;61.46;4022.09;5032879;28;46267;-86
2023/01/23 04:33:57;;;;;;;;;45.50;36.50;;;;;6.66;61.59;3695.38;5038573;28;45552;-87
2023/01/23 04:36:23;;;;;;;;;39.75;34.25;;;;;6.85;62.20;3697.41;5031544;28;45806;-86
2023/01/23 04:38:48;;;;;;;;;46.25;35.75;;;;;6.85;61.63;3697.41;5034414;28;45592;-86
2023/01/23 04:41:20;;;;;;;;;41.25;33.00;;;;;6.84;61.92;3697.25;5033034;28;46179;-86
2023/01/23 04:43:45;;;;;;;;;37.00;34.25;;;;;6.70;62.23;3695.75;5035215;28;45350;-86
2023/01/23 04:46:10;;;;;;;;;36.75;32.25;;;;;6.85;61.71;3697.41;5033212;28;45665;-85
2023/01/23 04:48:36;;;;;;;;;41.00;34.75;;;;;6.83;62.08;3697.13;5029741;28;45437;-85
2023/01/23 04:51:01;;;;;;;;;41.25;33.25;;;;;6.13;62.10;3689.63;5033930;28;45460;-86
2023/01/23 04:53:26;;;;;;;;;31.25;29.50;;;;;6.11;61.65;3689.41;5028150;28;45543;-86
2023/01/23 04:55:52;;;;;;;;;40.50;33.50;;;;;6.79;62.41;3365.84;5033922;28;45463;-84
2023/01/23 04:58:18;;;;;;;;;43.00;34.25;;;;;6.83;61.92;3366.28;5033933;28;45378;-84
2023/01/23 05:00:44;;;;;;;;;41.25;34.75;;;;;6.83;62.29;3366.28;5033375;28;45420;-85
2023/01/23 05:03:10;;;;;;;;;37.00;34.25;;;;;6.25;62.24;3360.41;5036073;28;45678;-84
2023/01/23 05:05:35;;;;;;;;;40.75;30.50;;;;;6.71;62.11;3365.06;5030453;28;45410;-84
2023/01/23 05:08:00;;;;;;;;;41.25;33.00;;;;;6.80;61.96;3366.00;5027436;28;45411;-85
2023/01/23 05:10:26;;;;;;;;;45.50;34.25;;;;;6.61;62.30;3033.38;5034710;28;46858;-84
2023/01/23 05:12:51;;;;;;;;;45.50;35.50;;;;;6.65;62.46;3033.72;5026972;28;45437;-84
2023/01/23 05:15:16;;;;;;;;;41.25;31.75;;;;;6.62;62.51;3033.47;5033523;28;45771;-84
2023/01/23 05:17:42;;;;;;;;;38.50;34.25;;;;;6.82;62.40;3035.41;5024721;28;45587;-84
2023/01/23 05:20:08;;;;;;;;;40.00;33.00;;;;;6.22;62.51;3029.53;5022484;28;46095;-86
2023/01/23 05:22:34;;;;;;;;;46.50;36.25;;;;;6.80;62.50;3035.22;5031459;28;45424;-85
2023/01/23 05:25:00;;;;;;;;;42.50;34.25;;;;;6.53;61.98;3032.63;5033660;28;45419;-85
2023/01/23 05:27:25;;;;;;;;;40.25;33.00;;;;;6.81;62.54;3035.31;5033442;28;45998;-85
2023/01/23 05:29:50;;;;;;;;;42.50;37.00;;;;;6.57;62.43;2702.25;5032734;28;45640;-86
2023/01/23 05:32:16;;;;;;;;;38.25;32.25;;;;;6.83;62.17;2704.66;5031873;28;45777;-85
2023/01/23 05:34:41;;;;;;;;;38.25;34.00;;;;;6.83;62.52;2704.72;5031560;28;45587;-83
2023/01/23 05:37:06;;;;;;;;;37.50;29.50;;;;;6.58;62.80;2371.72;5031449;28;45606;-83
2023/01/23 05:39:32;;;;;;;;;36.00;31.00;;;;;6.81;62.69;2373.75;5031519;28;46858;-83
2023/01/23 05:41:57;;;;;;;;;44.50;34.00;;;;;6.81;62.81;2373.75;5031125;28;45709;-83
2023/01/23 05:44:23;;;;;;;;;36.00;29.25;;;;;6.52;62.11;2371.25;5032774;28;46379;-83
2023/01/23 05:46:48;;;;;;;;;41.25;33.00;;;;;6.80;62.73;2704.38;5037416;28;45432;-85
2023/01/23 05:49:13;;;;;;;;;41.00;35.25;;;;;6.79;62.26;2704.28;5032944;28;46075;-85
2023/01/23 05:51:39;;;;;;;;;40.25;34.75;;;;;6.79;62.71;2373.53;5031602;28;45503;-85
2023/01/23 05:54:04;;;;;;;;;38.75;32.50;;;;;6.40;62.31;2370.22;5034177;28;45471;-85
2023/01/23 05:56:29;;;;;;;;;39.25;34.00;;;;;6.76;62.69;2373.31;5041450;28;45521;-84
2023/01/23 05:58:55;;;;;;;;;42.25;34.00;;;;;6.73;62.38;2373.09;5036767;28;45451;-84
2023/01/23 06:01:21;;;;;;;;;38.25;31.00;;;;;6.45;62.48;2701.19;5035414;28;45466;-84
2023/01/23 06:03:46;;;;;;;;;38.50;30.00;;;;;6.17;62.19;2368.19;5033975;28;45461;-84
2023/01/23 06:06:12;;;;;;;;;41.75;34.00;;;;;6.36;62.49;2700.38;5035666;28;45710;-85
2023/01/23 06:08:37;;;;;;;;;45.00;35.75;;;;;6.73;62.62;2703.75;5033205;28;46032;-83
2023/01/23 06:11:03;;;;;;;;;35.50;31.00;;;;;6.53;62.57;2701.94;5036056;28;45622;-84
2023/01/23 06:13:28;;;;;;;;;39.00;33.00;;;;;6.72;62.17;2703.72;5036748;28;45760;-84
2023/01/23 06:15:55;;;;;;;;;42.25;34.00;;;;;6.73;62.60;2703.75;5032599;28;45425;-86
2023/01/23 06:18:20;;;;;;;;;42.00;34.50;;;;;6.57;62.79;2702.31;5035509;28;46086;-85
2023/01/23 06:20:46;;;;;;;;;39.25;33.75;;;;;6.75;61.99;2703.94;5035476;28;45483;-85
2023/01/23 06:23:12;;;;;;;;;36.25;29.25;;;;;6.38;61.95;3031.09;5037964;28;45450;-86
2023/01/23 06:25:38;;;;;;;;;33.00;29.00;;;;;6.75;61.71;3034.72;5030237;28;45823;-83
2023/01/23 06:28:03;;;;;;;;;30.50;25.25;;;;;5.61;61.93;3353.88;5034915;28;45555;-84
2023/01/23 06:30:29;;;;;;;;;37.75;29.75;;;;;6.74;61.71;3365.38;5035260;28;45511;-84
2023/01/23 06:32:55;;;;;;;;;36.00;28.50;;;;;6.46;61.58;3362.56;5035572;28;45456;-84
2023/01/23 06:35:20;;;;;;;;;40.25;31.25;;;;;6.79;61.80;3365.84;5034667;28;45447;-84
2023/01/23 06:37:45;;;;;;;;;27.50;26.25;;;;;6.80;61.91;3366.00;5030248;28;46407;-84
2023/01/23 06:40:14;;;;;;;;;35.50;28.75;;;;;6.80;61.68;3035.22;5033762;28;45456;-84
2023/01/23 06:42:41;;;;;;;;;38.25;28.25;;;;;6.72;61.80;3034.41;5036025;28;45437;-84
2023/01/23 06:45:08;;;;;;;;;34.25;26.75;;;;;6.80;61.91;3035.16;5035446;28;45769;-84
2023/01/23 06:47:34;;;;;;;;;36.75;32.50;;;;;6.79;61.85;3035.09;5032987;28;45480;-84
2023/01/23 06:50:00;;;;;;;;;38.50;29.25;;;;;6.82;62.37;2704.56;5034669;28;45763;-84
2023/01/23 06:52:26;;;;;;;;;31.25;25.25;;;;;6.52;61.93;2701.84;5035177;28;45490;-84
2023/01/23 06:54:51;;;;;;;;;42.00;34.00;;;;;6.59;62.39;2702.44;5034390;28;45471;-84
2023/01/23 06:57:17;;;;;;;;;35.25;32.25;;;;;6.84;62.09;2373.97;5029909;28;45476;-86
2023/01/23 06:59:42;;;;;;;;;36.50;33.50;;;;;6.81;62.34;2704.50;5032943;28;45432;-86
2023/01/23 07:02:10;;;;;;;;;38.00;32.75;;;;;6.84;62.36;2373.97;5036070;28;45320;-89
2023/01/23 07:04:35;;;;;;;;;36.25;34.25;;;;;6.50;62.15;2371.09;5035839;28;45419;-85
2023/01/23 07:07:00;;;;;;;;;38.00;33.00;;;;;6.85;62.13;2374.06;5036230;28;45643;-89
2023/01/23 07:09:26;;;;;;;;;36.50;34.00;;;;;6.62;62.07;2372.06;5035529;28;45500;-88
2023/01/23 07:11:51;;;;;;;;;42.50;35.75;;;;;6.86;61.95;2374.19;5036404;28;45933;-89
2023/01/23 07:14:17;;;;;;;;;38.75;34.00;;;;;6.71;62.48;2372.88;5021086;28;46506;-90
2023/01/23 07:16:42;;;;;;;;;43.00;35.25;;;;;5.99;61.89;2366.66;5038210;28;45487;-90
2023/01/23 07:19:07;;;;;;;;;37.00;30.75;;;;;6.87;62.11;2374.28;5035309;28;45479;-90
2023/01/23 07:21:33;;;;;;;;;44.25;35.75;;;;;6.87;61.89;2374.28;5036586;28;45477;-90
2023/01/23 07:23:58;;;;;;;;;37.50;33.75;;;;;6.24;61.96;2699.25;5037339;28;45427;-92
2023/01/23 07:26:24;;;;;;;;;34.00;33.00;;;;;6.57;62.07;3032.97;5041917;28;47394;-90
2023/01/23 07:28:49;;;;;;;;;40.75;29.25;;;;;6.72;61.81;3034.47;5034238;28;45790;-90
2023/01/23 07:31:15;;;;;;;;;39.50;30.00;;;;;5.78;62.24;3025.28;5036114;28;45915;-88
2023/01/23 07:33:41;;;;;;;;;36.00;31.50;;;;;6.01;61.84;2697.19;5036954;28;45641;-88
2023/01/23 07:36:07;;;;;;;;;39.00;33.50;;;;;6.22;61.81;2699.06;5040243;28;47195;-89
2023/01/23 07:38:33;;;;;;;;;30.00;22.00;;;;;6.78;62.41;2704.22;5039422;28;45748;-91
2023/01/23 07:40:58;;;;;;;;;29.75;29.50;;;;;6.20;61.98;2698.88;5036403;28;45399;-91
2023/01/23 07:43:24;;;;;;;;;38.25;31.75;;;;;6.63;62.33;2702.81;5049304;28;45403;-91
2023/01/23 07:45:49;;;;;;;;;35.75;29.25;;;;;6.62;61.97;2372.13;5033236;28;48411;-92
2023/01/23 07:48:15;;;;;;;;;38.75;34.25;;;;;6.77;61.96;2373.41;5036593;28;46112;-92
2023/01/23 07:50:41;;;;;;;;;40.00;31.00;;;;;5.88;62.05;2696.03;5031953;28;45860;-93
2023/01/23 07:53:06;;;;;;;;;41.75;34.25;;;;;6.76;61.94;2704.03;5031420;28;45481;-92
2023/01/23 07:55:32;;;;;;;;;40.50;30.00;;;;;5.76;62.08;2694.88;5035457;28;48157;-89
2023/01/23 07:57:58;;;;;;;;;43.00;34.25;;;;;6.09;61.82;2697.94;5036981;28;45396;-91
2023/01/23 11:01:35;;;;;;;;;29.00;26.00;;;;;7.44;59.61;2379.16;5590032;22;45945;-88
2023/01/23 11:04:17;;;;;;;;;31.33;27.00;;;;;7.74;59.77;2381.84;4941348;28;45662;-88
2023/01/23 11:06:44;;;;;;;;;29.67;26.00;;;;;7.23;59.47;2377.38;4954172;28;45425;-88
2023/01/23 11:09:19;;;;;;;;;30.00;23.00;;;;;7.46;59.40;2379.34;4978091;28;45441;-88
2023/01/23 11:12:13;;;;;;;;;31.33;28.00;;;;;7.78;58.99;2382.16;4963638;28;47512;-90
2023/01/23 11:14:39;;;;;;;;;31.33;27.67;;;;;7.32;59.49;2378.16;4967623;28;46387;-90
2023/01/23 11:17:31;;;;;;;;;25.67;22.33;;;;;7.82;59.34;2382.53;4980098;28;45543;-91
2023/01/23 11:19:58;;;;;;;;;27.00;23.67;;;;;7.55;59.32;2380.16;4953437;28;45610;-91
2023/01/23 11:22:30;;;;;;;;;30.33;28.33;;;;;7.89;59.07;2383.13;4974655;28;46588;-91
2023/01/23 11:24:56;;;;;;;;;30.33;23.33;;;;;7.47;59.04;2379.44;4970939;28;46006;-90
2023/01/23 11:27:28;;;;;;;;;25.00;24.33;;;;;7.93;58.88;2383.47;4982202;28;45627;-91
2023/01/23 11:30:13;;;;;;;;;29.33;23.33;;;;;7.99;58.86;2383.97;4969517;28;45447;-90
2023/01/23 11:33:06;;;;;;;;;27.67;22.00;;;;;7.42;58.56;2379.03;4979511;28;46087;-90
2023/01/23 11:35:56;;;;;;;;;24.33;22.33;;;;;7.95;58.49;2383.63;4913085;28;45795;-89
2023/01/23 11:38:39;;;;;;;;;21.67;16.67;;;;;7.92;58.32;2383.38;4917266;28;45509;-90
2023/01/23 11:41:08;;;;;;;;;25.67;21.67;;;;;7.66;58.17;2381.06;4917612;28;45490;-88
2023/01/23 11:43:33;;;;;;;;;24.33;24.33;;;;;7.66;57.96;2381.13;4900644;28;46577;-87
2023/01/23 11:45:58;;;;;;;;;26.00;19.67;;;;;8.12;58.24;2716.53;4916472;28;45559;-88
2023/01/23 11:49:01;;;;;;;;;27.33;23.33;;;;;8.08;58.47;2716.22;4916869;28;45485;-88
2023/01/23 11:51:44;;;;;;;;;21.67;21.00;;;;;8.07;58.64;2716.06;4915078;28;45592;-88
2023/01/23 11:54:36;;;;;;;;;25.33;20.67;;;;;7.76;58.55;3044.53;4921405;28;45446;-88
2023/01/23 11:57:09;;;;;;;;;26.33;21.33;;;;;7.49;58.47;3041.94;4912392;28;45614;-87
2023/01/23 11:59:44;;;;;;;;;25.33;21.33;;;;;7.92;58.77;3046.06;4927379;28;45468;-88
2023/01/23 12:08:16;;;;;;;;;29.00;28.00;;;;;7.93;59.02;3046.16;6055700;23;46414;31
2023/01/23 12:10:54;;;;;;;;;32.33;26.67;;;;;7.93;58.92;3046.22;4947188;28;45527;-88
2023/01/23 12:13:44;;;;;;;;;31.00;26.00;;;;;7.91;59.08;3045.97;4953976;28;45369;-89
2023/01/23 12:16:36;;;;;;;;;33.33;24.67;;;;;7.93;58.77;2714.84;4960014;28;47766;-94
2023/01/23 12:19:23;;;;;;;;;23.00;23.00;;;;;7.91;58.95;3045.97;4942705;28;45354;-92
2023/01/23 12:22:03;;;;;;;;;27.67;27.00;;;;;7.45;58.55;3041.53;4941637;28;45317;-92
2023/01/23 12:24:44;;;;;;;;;24.67;23.00;;;;;7.64;58.83;3043.31;4958430;28;45499;-94
2023/01/23 12:27:39;;;;;;;;;29.67;25.67;;;;;7.38;59.00;3040.88;4956237;28;45541;-94
2023/01/23 12:30:07;;;;;;;;;30.33;28.00;;;;;7.89;59.26;3045.78;4957157;28;45476;-93
2023/01/23 12:32:38;;;;;;;;;32.67;27.00;;;;;7.87;59.07;3045.56;4956588;28;45818;-90
2023/01/23 12:35:23;;;;;;;;;28.33;23.33;;;;;7.87;58.97;3045.56;4955310;28;45698;-89
2023/01/23 12:38:26;;;;;;;;;25.67;23.33;;;;;7.86;59.09;3376.91;4950447;28;46281;-89
2023/01/23 12:40:57;;;;;;;;;25.33;20.00;;;;;7.88;58.87;3045.69;4938916;28;45658;-90
2023/01/23 12:43:32;;;;;;;;;25.33;20.33;;;;;7.89;59.14;3045.78;4937879;28;45527;-87
2023/01/23 12:46:06;;;;;;;;;25.67;24.67;;;;;7.74;58.90;3044.31;4956687;28;45457;-87
2023/01/23 12:48:41;;;;;;;;;26.67;20.67;;;;;7.92;59.23;3046.06;4954706;28;48076;-86
2023/01/23 12:51:13;;;;;;;;;16.00;15.33;;;;;7.91;58.58;3377.44;4941118;28;45507;-87
2023/01/23 12:53:43;;;;;;;;;13.00;13.00;;;;;7.76;58.75;3707.25;4956287;28;45409;-86
2023/01/23 12:56:36;;;;;;;;;17.67;16.33;;;;;7.86;58.83;3708.25;4956301;28;45524;-87
2023/01/23 12:59:30;;;;;;;;;21.67;19.33;;;;;7.89;58.60;3708.59;4935118;28;48828;-88
2023/01/23 17:01:21;;;;;;;;;23.33;22.33;;;;;8.00;57.06;7026.25;5530661;23;45992;-88
2023/01/23 17:03:56;;;;;;;;;28.67;22.33;;;;;7.94;56.98;6693.44;4980020;23;47474;-86
2023/01/23 17:06:21;;;;;;;;;21.00;19.33;;;;;7.86;56.98;6692.16;4946114;28;45787;-86
2023/01/23 17:08:48;;;;;;;;;26.00;24.00;;;;;7.63;57.18;6357.09;4954151;28;45480;-85
2023/01/23 17:11:23;;;;;;;;;29.67;23.00;;;;;7.88;57.10;6692.47;4956601;28;45373;-86
2023/01/23 17:13:55;;;;;;;;;31.00;23.00;;;;;7.51;57.25;6355.22;4955989;28;46068;-86
2023/01/23 17:16:21;;;;;;;;;21.00;17.33;;;;;7.67;56.81;6689.25;4967608;28;45594;-86
2023/01/23 17:18:46;;;;;;;;;24.33;21.33;;;;;7.81;56.62;7023.09;4966511;28;45523;-86
2023/01/23 17:21:18;;;;;;;;;27.67;19.67;;;;;8.08;56.43;6695.59;4955067;28;45580;-86
2023/01/23 17:23:43;;;;;;;;;31.67;24.33;;;;;7.61;56.84;6688.31;4941178;28;46343;-86
2023/01/23 17:26:17;;;;;;;;;26.67;22.67;;;;;7.63;56.41;7020.09;4953636;28;45395;-86
2023/01/23 17:28:42;;;;;;;;;22.00;16.67;;;;;8.08;56.73;7027.41;4956142;28;45693;-86
2023/01/23 17:31:19;;;;;;;;;26.67;23.33;;;;;8.08;56.42;7027.50;4952351;28;45441;-85
2023/01/23 17:33:45;;;;;;;;;23.67;20.00;;;;;8.09;56.95;7027.56;4955937;28;45650;-86
2023/01/23 17:36:10;;;;;;;;;22.33;18.00;;;;;7.84;56.59;7023.59;4954462;28;45518;-87
2023/01/23 17:38:38;;;;;;;;;25.33;23.33;;;;;7.60;56.79;6688.22;4954476;28;45743;-86
2023/01/23 17:41:05;;;;;;;;;16.67;16.00;;;;;7.61;56.92;6688.38;4958371;28;45468;-86
2023/01/23 17:43:31;;;;;;;;;21.00;18.00;;;;;8.10;56.50;6695.91;4958426;28;47526;-87
2023/01/23 17:45:57;;;;;;;;;24.67;21.67;;;;;8.04;56.96;6695.13;4956852;28;45525;-87
2023/01/23 17:48:28;;;;;;;;;23.33;20.67;;;;;7.56;57.18;6687.59;4956025;28;45628;-87
2023/01/23 17:50:54;;;;;;;;;32.33;26.00;;;;;8.10;56.78;6364.13;4963805;28;45488;-86
2023/01/23 17:53:20;;;;;;;;;24.67;22.00;;;;;8.02;56.60;6363.03;4956446;28;46070;-87
2023/01/23 17:55:50;;;;;;;;;25.67;21.67;;;;;7.67;56.67;6689.25;4959582;28;45956;-86
2023/01/23 17:58:16;;;;;;;;;28.00;24.00;;;;;7.98;56.54;6694.06;4957035;28;45673;-86
2023/01/23 18:00:44;;;;;;;;;23.67;22.67;;;;;8.13;56.50;6364.69;4954892;28;45861;-87
2023/01/23 18:03:16;;;;;;;;;24.00;22.67;;;;;8.12;57.11;6696.25;4956940;28;45586;-86
2023/01/23 18:05:41;;;;;;;;;22.00;22.00;;;;;8.09;56.67;7027.66;4956313;28;45592;-87
2023/01/23 18:08:15;;;;;;;;;29.00;26.67;;;;;7.67;56.66;7020.78;4960671;28;45889;-86
2023/01/23 18:10:44;;;;;;;;;27.67;21.33;;;;;7.86;56.79;7023.91;4954284;28;45642;-86
2023/01/23 18:13:09;;;;;;;;;28.33;25.00;;;;;8.11;56.88;6696.16;4954593;28;45513;-86
2023/01/23 18:15:46;;;;;;;;;25.00;25.00;;;;;8.12;56.68;6696.31;4957434;28;45444;-87
2023/01/23 18:18:30;;;;;;;;;22.33;21.33;;;;;7.98;56.66;6694.16;4956500;28;45650;-88
2023/01/23 18:20:57;;;;;;;;;26.33;20.33;;;;;7.64;56.68;6357.25;4954790;28;45512;-87
2023/01/23 18:23:24;;;;;;;;;25.67;21.67;;;;;7.71;56.83;6689.91;4958199;28;46413;-86
2023/01/23 18:26:05;;;;;;;;;29.00;24.67;;;;;8.15;56.86;6696.81;4951655;28;46106;-86
2023/01/23 18:28:40;;;;;;;;;24.33;20.33;;;;;7.90;56.61;6692.78;4949892;28;45535;-85
2023/01/23 18:31:35;;;;;;;;;24.00;24.00;;;;;8.13;56.91;6696.47;4952956;28;45498;-85
2023/01/23 18:34:25;;;;;;;;;27.67;24.00;;;;;8.15;56.63;6364.97;4954761;28;48399;-86
2023/01/23 18:37:08;;;;;;;;;26.67;26.33;;;;;8.16;56.82;6696.97;4957073;28;45530;-86
2023/01/23 18:39:50;;;;;;;;;28.33;23.67;;;;;8.18;56.87;6365.44;4956469;28;45528;-87
2023/01/23 18:42:36;;;;;;;;;26.67;25.33;;;;;8.01;57.06;6362.91;4953689;28;45466;-90
2023/01/23 18:45:05;;;;;;;;;30.67;26.67;;;;;8.19;56.83;6365.59;4953431;28;45543;-89
2023/01/23 18:47:31;;;;;;;;;20.33;18.33;;;;;7.88;56.71;6029.16;4957493;28;45356;-88
2023/01/23 18:49:57;;;;;;;;;34.67;24.00;;;;;8.39;56.81;5372.88;4953960;28;45547;-86
2023/01/23 18:52:48;;;;;;;;;25.33;22.00;;;;;8.43;56.64;5373.44;4949986;28;47295;-89
2023/01/23 18:55:26;;;;;;;;;24.00;23.00;;;;;8.47;56.55;5373.94;4949376;28;46551;-88